sensor_id;sensor_type;location;lat;lon;timestamp;temperature;humidity
53152;DHT22;39234;53.158;6.322;2022-11-20T01:08:31;-0.60;99.90
53152;DHT22;39234;53.158;6.322;2022-11-20T01:18:42;-0.50;99.90
53152;DHT22;39234;53.158;6.322;2022-11-20T01:26:05;-0.50;99.90
53152;DHT22;39234;53.158;6.322;2022-11-20T01:50:49;-0.60;99.90
53152;DHT22;39234;53.158;6.322;2022-11-20T02:25:36;-0.40;99.90
53152;DHT22;39234;53.158;6.322;2022-11-20T02:37:49;-0.20;99.90
53152;DHT22;39234;53.158;6.322;2022-11-20T03:31:36;0.10;99.90
53152;DHT22;39234;53.158;6.322;2022-11-20T03:38:56;0.00;99.90
53152;DHT22;39234;53.158;6.322;2022-11-20T03:56:13;0.30;99.90
53152;DHT22;39234;53.158;6.322;2022-11-20T03:58:40;0.10;99.90
53152;DHT22;39234;53.158;6.322;2022-11-20T05:48:45;0.40;99.90
53152;DHT22;39234;53.158;6.322;2022-11-20T05:51:15;0.40;99.90
53152;DHT22;39234;53.158;6.322;2022-11-20T05:56:10;0.40;99.90
53152;DHT22;39234;53.158;6.322;2022-11-20T06:01:23;0.40;99.90
53152;DHT22;39234;53.158;6.322;2022-11-20T06:16:02;0.50;99.90
53152;DHT22;39234;53.158;6.322;2022-11-20T06:18:29;0.40;99.90
53152;DHT22;39234;53.158;6.322;2022-11-20T08:01:06;0.50;99.90
53152;DHT22;39234;53.158;6.322;2022-11-20T08:05:59;0.50;99.90
53152;DHT22;39234;53.158;6.322;2022-11-20T08:23:22;0.70;99.90
53152;DHT22;39234;53.158;6.322;2022-11-20T08:25:49;0.60;99.90
53152;DHT22;39234;53.158;6.322;2022-11-20T08:33:08;0.50;99.90
53152;DHT22;39234;53.158;6.322;2022-11-20T08:38:06;0.60;99.90
53152;DHT22;39234;53.158;6.322;2022-11-20T08:50:17;0.60;99.90
53152;DHT22;39234;53.158;6.322;2022-11-20T09:57:46;1.10;99.90
53152;DHT22;39234;53.158;6.322;2022-11-20T10:00:14;1.30;99.90
53152;DHT22;39234;53.158;6.322;2022-11-20T10:03:03;1.30;99.90
53152;DHT22;39234;53.158;6.322;2022-11-20T10:05:43;1.20;99.90
53152;DHT22;39234;53.158;6.322;2022-11-20T10:08:28;1.40;99.90
53152;DHT22;39234;53.158;6.322;2022-11-20T10:12:19;1.30;99.90
53152;DHT22;39234;53.158;6.322;2022-11-20T10:29:33;1.80;99.90
53152;DHT22;39234;53.158;6.322;2022-11-20T10:32:25;1.70;99.90
53152;DHT22;39234;53.158;6.322;2022-11-20T10:37:25;1.90;99.90
53152;DHT22;39234;53.158;6.322;2022-11-20T10:40:18;2.00;99.90
53152;DHT22;39234;53.158;6.322;2022-11-20T10:42:47;1.90;99.90
53152;DHT22;39234;53.158;6.322;2022-11-20T10:46:01;2.00;99.90
53152;DHT22;39234;53.158;6.322;2022-11-20T10:48:31;2.30;99.90
53152;DHT22;39234;53.158;6.322;2022-11-20T10:51:21;1.90;99.90
53152;DHT22;39234;53.158;6.322;2022-11-20T10:56:46;1.40;99.90
53152;DHT22;39234;53.158;6.322;2022-11-20T11:06:58;2.10;99.90
53152;DHT22;39234;53.158;6.322;2022-11-20T11:09:33;2.00;99.90
53152;DHT22;39234;53.158;6.322;2022-11-20T11:16:57;3.30;99.90
53152;DHT22;39234;53.158;6.322;2022-11-20T11:21:55;2.20;99.90
53152;DHT22;39234;53.158;6.322;2022-11-20T11:32:07;2.50;99.90
53152;DHT22;39234;53.158;6.322;2022-11-20T11:37:00;2.50;99.90
53152;DHT22;39234;53.158;6.322;2022-11-20T11:39:29;2.60;99.90
53152;DHT22;39234;53.158;6.322;2022-11-20T11:44:29;2.60;99.90
53152;DHT22;39234;53.158;6.322;2022-11-20T11:47:24;2.60;99.90
53152;DHT22;39234;53.158;6.322;2022-11-20T11:50:22;2.70;99.90
53152;DHT22;39234;53.158;6.322;2022-11-20T11:53:08;2.80;99.90
53152;DHT22;39234;53.158;6.322;2022-11-20T12:01:44;3.20;99.90
53152;DHT22;39234;53.158;6.322;2022-11-20T12:07:20;3.40;99.90
53152;DHT22;39234;53.158;6.322;2022-11-20T12:09:50;3.20;99.90
53152;DHT22;39234;53.158;6.322;2022-11-20T12:12:20;3.50;99.90
53152;DHT22;39234;53.158;6.322;2022-11-20T12:14:48;3.40;99.90
53152;DHT22;39234;53.158;6.322;2022-11-20T12:30:32;3.50;99.90
53152;DHT22;39234;53.158;6.322;2022-11-20T12:33:22;3.30;99.90
53152;DHT22;39234;53.158;6.322;2022-11-20T13:01:31;3.30;99.90
53152;DHT22;39234;53.158;6.322;2022-11-20T13:06:50;3.30;99.90
53152;DHT22;39234;53.158;6.322;2022-11-20T13:09:19;3.30;99.90
53152;DHT22;39234;53.158;6.322;2022-11-20T13:15:26;3.20;99.90
53152;DHT22;39234;53.158;6.322;2022-11-20T13:17:58;3.30;99.90
53152;DHT22;39234;53.158;6.322;2022-11-20T13:22:57;3.30;99.90
53152;DHT22;39234;53.158;6.322;2022-11-20T13:30:20;3.20;99.90
53152;DHT22;39234;53.158;6.322;2022-11-20T13:33:08;3.30;99.90
53152;DHT22;39234;53.158;6.322;2022-11-20T13:35:37;3.20;99.90
53152;DHT22;39234;53.158;6.322;2022-11-20T13:38:11;3.40;99.90
53152;DHT22;39234;53.158;6.322;2022-11-20T13:40:58;3.40;99.90
53152;DHT22;39234;53.158;6.322;2022-11-20T13:43:37;3.30;99.90
53152;DHT22;39234;53.158;6.322;2022-11-20T13:46:05;3.20;99.90
53152;DHT22;39234;53.158;6.322;2022-11-20T13:48:40;3.30;99.90
53152;DHT22;39234;53.158;6.322;2022-11-20T13:56:59;2.90;99.90
53152;DHT22;39234;53.158;6.322;2022-11-20T14:04:27;3.10;99.90
53152;DHT22;39234;53.158;6.322;2022-11-20T14:09:31;3.10;99.90
53152;DHT22;39234;53.158;6.322;2022-11-20T14:14:26;2.90;99.90
53152;DHT22;39234;53.158;6.322;2022-11-20T14:16:53;2.90;99.90
53152;DHT22;39234;53.158;6.322;2022-11-20T14:19:30;2.80;99.90
53152;DHT22;39234;53.158;6.322;2022-11-20T14:22:24;2.90;99.90
53152;DHT22;39234;53.158;6.322;2022-11-20T14:27:36;2.80;99.90
53152;DHT22;39234;53.158;6.322;2022-11-20T14:30:03;2.60;99.90
53152;DHT22;39234;53.158;6.322;2022-11-20T14:32:30;2.70;99.90
53152;DHT22;39234;53.158;6.322;2022-11-20T14:35:02;2.60;99.90
53152;DHT22;39234;53.158;6.322;2022-11-20T14:37:33;2.70;99.90
53152;DHT22;39234;53.158;6.322;2022-11-20T14:42:27;2.70;99.90
53152;DHT22;39234;53.158;6.322;2022-11-20T14:44:56;2.50;99.90
53152;DHT22;39234;53.158;6.322;2022-11-20T14:47:25;2.70;99.90
53152;DHT22;39234;53.158;6.322;2022-11-20T14:49:52;2.40;99.90
53152;DHT22;39234;53.158;6.322;2022-11-20T14:52:21;2.50;99.90
53152;DHT22;39234;53.158;6.322;2022-11-20T14:54:55;2.50;99.90
53152;DHT22;39234;53.158;6.322;2022-11-20T14:57:34;2.40;99.90
53152;DHT22;39234;53.158;6.322;2022-11-20T15:00:21;2.50;99.90
53152;DHT22;39234;53.158;6.322;2022-11-20T15:02:49;2.20;99.90
53152;DHT22;39234;53.158;6.322;2022-11-20T15:05:17;2.50;99.90
53152;DHT22;39234;53.158;6.322;2022-11-20T15:07:48;2.10;99.90
53152;DHT22;39234;53.158;6.322;2022-11-20T15:10:25;2.20;99.90
53152;DHT22;39234;53.158;6.322;2022-11-20T15:12:55;2.20;99.90
53152;DHT22;39234;53.158;6.322;2022-11-20T15:20:25;2.10;99.90
53152;DHT22;39234;53.158;6.322;2022-11-20T15:25:18;2.20;99.90
53152;DHT22;39234;53.158;6.322;2022-11-20T15:27:45;2.00;99.90
53152;DHT22;39234;53.158;6.322;2022-11-20T15:30:16;2.10;99.90
53152;DHT22;39234;53.158;6.322;2022-11-20T15:35:09;1.90;99.90
53152;DHT22;39234;53.158;6.322;2022-11-20T15:37:36;2.30;99.90
53152;DHT22;39234;53.158;6.322;2022-11-20T15:47:25;2.10;99.90
53152;DHT22;39234;53.158;6.322;2022-11-20T16:02:11;2.10;99.90
53152;DHT22;39234;53.158;6.322;2022-11-20T16:04:37;2.10;99.90
53152;DHT22;39234;53.158;6.322;2022-11-20T16:26:54;2.00;99.90
53152;DHT22;39234;53.158;6.322;2022-11-20T16:36:42;1.80;99.90
53152;DHT22;39234;53.158;6.322;2022-11-20T16:44:07;1.60;99.90
53152;DHT22;39234;53.158;6.322;2022-11-20T16:49:03;1.90;99.90
53152;DHT22;39234;53.158;6.322;2022-11-20T16:51:30;1.70;99.90
53152;DHT22;39234;53.158;6.322;2022-11-20T17:06:14;1.80;99.90
53152;DHT22;39234;53.158;6.322;2022-11-20T17:11:11;1.60;99.90
53152;DHT22;39234;53.158;6.322;2022-11-20T17:16:08;1.40;99.90
53152;DHT22;39234;53.158;6.322;2022-11-20T17:26:14;1.50;99.90
53152;DHT22;39234;53.158;6.322;2022-11-20T17:28:44;1.30;99.90
53152;DHT22;39234;53.158;6.322;2022-11-20T17:31:13;1.50;99.90
53152;DHT22;39234;53.158;6.322;2022-11-20T17:33:40;1.60;99.90
53152;DHT22;39234;53.158;6.322;2022-11-20T17:36:08;1.40;99.90
53152;DHT22;39234;53.158;6.322;2022-11-20T17:41:06;1.40;99.90
53152;DHT22;39234;53.158;6.322;2022-11-20T17:46:04;1.30;99.90
53152;DHT22;39234;53.158;6.322;2022-11-20T17:51:00;1.40;99.90
53152;DHT22;39234;53.158;6.322;2022-11-20T17:55:57;1.30;99.90
53152;DHT22;39234;53.158;6.322;2022-11-20T18:06:11;1.30;99.90
53152;DHT22;39234;53.158;6.322;2022-11-20T18:11:14;1.40;99.90
53152;DHT22;39234;53.158;6.322;2022-11-20T18:16:26;1.50;99.90
53152;DHT22;39234;53.158;6.322;2022-11-20T18:18:56;1.40;99.90
53152;DHT22;39234;53.158;6.322;2022-11-20T18:31:08;1.50;99.90
53152;DHT22;39234;53.158;6.322;2022-11-20T18:36:16;1.50;99.90
53152;DHT22;39234;53.158;6.322;2022-11-20T18:38:47;1.40;99.90
53152;DHT22;39234;53.158;6.322;2022-11-20T19:16:07;1.50;65.30
53152;DHT22;39234;53.158;6.322;2022-11-20T19:21:07;1.30;98.30
53152;DHT22;39234;53.158;6.322;2022-11-20T19:28:28;1.30;70.60
53152;DHT22;39234;53.158;6.322;2022-11-20T21:11:08;1.20;92.90
53152;DHT22;39234;53.158;6.322;2022-11-20T21:26:07;1.30;96.40
53152;DHT22;39234;53.158;6.322;2022-11-20T21:28:34;1.50;96.10
53152;DHT22;39234;53.158;6.322;2022-11-20T21:31:21;1.40;95.00
53152;DHT22;39234;53.158;6.322;2022-11-20T21:36:24;1.40;95.60
53152;DHT22;39234;53.158;6.322;2022-11-20T21:46:13;1.30;96.70
53152;DHT22;39234;53.158;6.322;2022-11-20T21:48:40;1.40;98.70
53152;DHT22;39234;53.158;6.322;2022-11-20T21:51:15;1.30;98.90
53152;DHT22;39234;53.158;6.322;2022-11-20T21:53:42;1.30;97.70
53152;DHT22;39234;53.158;6.322;2022-11-20T21:56:09;1.40;98.80
53152;DHT22;39234;53.158;6.322;2022-11-20T21:58:36;1.30;97.90
53152;DHT22;39234;53.158;6.322;2022-11-20T22:01:23;1.30;98.30
53152;DHT22;39234;53.158;6.322;2022-11-20T22:03:51;1.30;97.80
53152;DHT22;39234;53.158;6.322;2022-11-20T22:06:18;1.30;97.10
53152;DHT22;39234;53.158;6.322;2022-11-20T22:11:12;1.20;97.80
53152;DHT22;39234;53.158;6.322;2022-11-20T22:18:51;1.40;99.20
53152;DHT22;39234;53.158;6.322;2022-11-20T22:21:28;1.40;98.60
53152;DHT22;39234;53.158;6.322;2022-11-20T22:26:22;1.40;98.30
53152;DHT22;39234;53.158;6.322;2022-11-20T22:28:49;1.50;99.90
53152;DHT22;39234;53.158;6.322;2022-11-20T22:31:16;1.40;99.90
53152;DHT22;39234;53.158;6.322;2022-11-20T22:36:11;1.20;99.90
53152;DHT22;39234;53.158;6.322;2022-11-20T22:41:08;1.40;99.90
53152;DHT22;39234;53.158;6.322;2022-11-20T22:48:32;1.50;99.90
53152;DHT22;39234;53.158;6.322;2022-11-20T22:51:06;1.30;99.90
53152;DHT22;39234;53.158;6.322;2022-11-20T22:56:00;1.40;99.90
53152;DHT22;39234;53.158;6.322;2022-11-20T22:58:30;1.40;99.90
53152;DHT22;39234;53.158;6.322;2022-11-20T23:05:59;1.40;99.90
